sensor_id;sensor_type;location;lat;lon;timestamp;P1;durP1;ratioP1;P2;durP2;ratioP2
79702;SDS011;69172;52.352;5.006;2023-04-12T00:00:53;9.77;;;2.28;;
79702;SDS011;69172;52.352;5.006;2023-04-12T00:03:19;10.45;;;2.42;;
79702;SDS011;69172;52.352;5.006;2023-04-12T00:05:49;10.80;;;2.28;;
79702;SDS011;69172;52.352;5.006;2023-04-12T00:08:18;10.63;;;2.03;;
79702;SDS011;69172;52.352;5.006;2023-04-12T00:10:49;10.75;;;1.88;;
79702;SDS011;69172;52.352;5.006;2023-04-12T00:13:14;11.43;;;1.75;;
79702;SDS011;69172;52.352;5.006;2023-04-12T00:15:40;10.05;;;2.28;;
79702;SDS011;69172;52.352;5.006;2023-04-12T00:18:05;9.02;;;2.03;;
79702;SDS011;69172;52.352;5.006;2023-04-12T00:20:31;10.50;;;2.10;;
79702;SDS011;69172;52.352;5.006;2023-04-12T00:22:56;7.75;;;1.92;;
79702;SDS011;69172;52.352;5.006;2023-04-12T00:25:22;8.25;;;2.00;;
79702;SDS011;69172;52.352;5.006;2023-04-12T00:27:47;10.38;;;2.30;;
79702;SDS011;69172;52.352;5.006;2023-04-12T00:30:12;7.35;;;1.85;;
79702;SDS011;69172;52.352;5.006;2023-04-12T00:32:38;8.95;;;2.20;;
79702;SDS011;69172;52.352;5.006;2023-04-12T00:35:05;10.98;;;3.03;;
79702;SDS011;69172;52.352;5.006;2023-04-12T00:37:31;8.38;;;2.10;;
79702;SDS011;69172;52.352;5.006;2023-04-12T00:39:57;9.95;;;2.47;;
79702;SDS011;69172;52.352;5.006;2023-04-12T00:42:22;8.85;;;1.92;;
79702;SDS011;69172;52.352;5.006;2023-04-12T00:44:48;9.35;;;1.85;;
79702;SDS011;69172;52.352;5.006;2023-04-12T00:47:14;6.00;;;1.88;;
79702;SDS011;69172;52.352;5.006;2023-04-12T00:49:42;6.60;;;2.20;;
79702;SDS011;69172;52.352;5.006;2023-04-12T00:52:07;5.07;;;2.10;;
79702;SDS011;69172;52.352;5.006;2023-04-12T00:54:38;7.53;;;1.98;;
79702;SDS011;69172;52.352;5.006;2023-04-12T00:57:05;9.43;;;2.35;;
79702;SDS011;69172;52.352;5.006;2023-04-12T00:59:31;10.27;;;2.15;;
79702;SDS011;69172;52.352;5.006;2023-04-12T01:01:56;8.05;;;2.42;;
79702;SDS011;69172;52.352;5.006;2023-04-12T01:04:23;6.80;;;2.00;;
79702;SDS011;69172;52.352;5.006;2023-04-12T01:07:08;7.05;;;1.85;;
79702;SDS011;69172;52.352;5.006;2023-04-12T01:12:15;5.63;;;1.63;;
79702;SDS011;69172;52.352;5.006;2023-04-12T01:17:31;4.93;;;1.45;;
79702;SDS011;69172;52.352;5.006;2023-04-12T01:28:14;6.40;;;1.55;;
79702;SDS011;69172;52.352;5.006;2023-04-12T01:30:44;3.95;;;1.02;;
79702;SDS011;69172;52.352;5.006;2023-04-12T01:33:12;3.08;;;0.98;;
79702;SDS011;69172;52.352;5.006;2023-04-12T01:35:40;5.45;;;1.27;;
79702;SDS011;69172;52.352;5.006;2023-04-12T01:38:06;3.72;;;1.25;;
79702;SDS011;69172;52.352;5.006;2023-04-12T01:40:32;5.32;;;1.20;;
79702;SDS011;69172;52.352;5.006;2023-04-12T01:43:03;5.28;;;1.10;;
79702;SDS011;69172;52.352;5.006;2023-04-12T01:45:32;5.93;;;1.10;;
79702;SDS011;69172;52.352;5.006;2023-04-12T01:47:58;5.45;;;1.20;;
79702;SDS011;69172;52.352;5.006;2023-04-12T01:50:32;6.13;;;1.30;;
79702;SDS011;69172;52.352;5.006;2023-04-12T01:53:37;6.15;;;0.98;;
79702;SDS011;69172;52.352;5.006;2023-04-12T01:56:08;4.57;;;1.23;;
79702;SDS011;69172;52.352;5.006;2023-04-12T01:58:34;2.28;;;0.95;;
79702;SDS011;69172;52.352;5.006;2023-04-12T02:01:02;2.60;;;0.95;;
79702;SDS011;69172;52.352;5.006;2023-04-12T02:03:31;3.85;;;1.30;;
79702;SDS011;69172;52.352;5.006;2023-04-12T02:12:32;3.58;;;1.17;;
79702;SDS011;69172;52.352;5.006;2023-04-12T02:14:57;3.22;;;0.95;;
79702;SDS011;69172;52.352;5.006;2023-04-12T02:17:24;8.00;;;1.40;;
79702;SDS011;69172;52.352;5.006;2023-04-12T02:19:49;9.63;;;1.35;;
79702;SDS011;69172;52.352;5.006;2023-04-12T02:22:15;3.80;;;1.38;;
79702;SDS011;69172;52.352;5.006;2023-04-12T02:24:40;7.55;;;1.50;;
79702;SDS011;69172;52.352;5.006;2023-04-12T02:29:51;5.80;;;1.30;;
79702;SDS011;69172;52.352;5.006;2023-04-12T02:32:22;3.80;;;1.23;;
79702;SDS011;69172;52.352;5.006;2023-04-12T02:34:49;6.15;;;1.20;;
79702;SDS011;69172;52.352;5.006;2023-04-12T02:37:24;5.30;;;1.33;;
79702;SDS011;69172;52.352;5.006;2023-04-12T02:42:35;4.75;;;1.38;;
79702;SDS011;69172;52.352;5.006;2023-04-12T02:45:01;5.47;;;1.40;;
79702;SDS011;69172;52.352;5.006;2023-04-12T02:47:27;4.30;;;1.42;;
79702;SDS011;69172;52.352;5.006;2023-04-12T02:49:54;3.90;;;1.30;;
79702;SDS011;69172;52.352;5.006;2023-04-12T02:52:20;4.38;;;1.35;;
79702;SDS011;69172;52.352;5.006;2023-04-12T02:54:48;2.92;;;1.10;;
79702;SDS011;69172;52.352;5.006;2023-04-12T02:57:14;5.70;;;1.27;;
79702;SDS011;69172;52.352;5.006;2023-04-12T02:59:40;5.80;;;1.40;;
79702;SDS011;69172;52.352;5.006;2023-04-12T03:02:05;4.85;;;1.60;;
79702;SDS011;69172;52.352;5.006;2023-04-12T03:04:31;4.55;;;1.50;;
79702;SDS011;69172;52.352;5.006;2023-04-12T03:06:57;5.43;;;1.50;;
79702;SDS011;69172;52.352;5.006;2023-04-12T03:09:23;7.03;;;1.48;;
79702;SDS011;69172;52.352;5.006;2023-04-12T03:11:49;4.35;;;1.35;;
79702;SDS011;69172;52.352;5.006;2023-04-12T03:14:15;4.35;;;1.73;;
79702;SDS011;69172;52.352;5.006;2023-04-12T03:16:41;3.30;;;1.15;;
79702;SDS011;69172;52.352;5.006;2023-04-12T03:19:07;6.47;;;1.20;;
79702;SDS011;69172;52.352;5.006;2023-04-12T03:21:33;4.82;;;1.30;;
79702;SDS011;69172;52.352;5.006;2023-04-12T03:23:58;3.28;;;1.40;;
79702;SDS011;69172;52.352;5.006;2023-04-12T03:26:24;4.45;;;1.23;;
79702;SDS011;69172;52.352;5.006;2023-04-12T03:28:51;8.13;;;1.60;;
79702;SDS011;69172;52.352;5.006;2023-04-12T03:31:20;4.35;;;1.30;;
79702;SDS011;69172;52.352;5.006;2023-04-12T03:33:45;7.57;;;1.52;;
79702;SDS011;69172;52.352;5.006;2023-04-12T03:36:11;5.85;;;1.45;;
79702;SDS011;69172;52.352;5.006;2023-04-12T03:38:36;4.85;;;1.60;;
79702;SDS011;69172;52.352;5.006;2023-04-12T03:41:02;6.72;;;1.88;;
79702;SDS011;69172;52.352;5.006;2023-04-12T03:43:27;5.63;;;1.58;;
79702;SDS011;69172;52.352;5.006;2023-04-12T03:45:59;5.15;;;1.55;;
79702;SDS011;69172;52.352;5.006;2023-04-12T03:48:25;4.20;;;1.25;;
79702;SDS011;69172;52.352;5.006;2023-04-12T03:50:50;4.70;;;1.48;;
79702;SDS011;69172;52.352;5.006;2023-04-12T03:53:18;7.05;;;1.70;;
79702;SDS011;69172;52.352;5.006;2023-04-12T03:55:45;5.15;;;1.85;;
79702;SDS011;69172;52.352;5.006;2023-04-12T03:58:10;5.63;;;1.70;;
79702;SDS011;69172;52.352;5.006;2023-04-12T04:00:37;5.03;;;2.00;;
79702;SDS011;69172;52.352;5.006;2023-04-12T04:03:03;4.68;;;1.48;;
79702;SDS011;69172;52.352;5.006;2023-04-12T04:05:29;4.82;;;1.27;;
79702;SDS011;69172;52.352;5.006;2023-04-12T04:07:55;4.18;;;1.65;;
79702;SDS011;69172;52.352;5.006;2023-04-12T04:10:26;3.70;;;1.50;;
79702;SDS011;69172;52.352;5.006;2023-04-12T04:12:52;3.33;;;1.20;;
79702;SDS011;69172;52.352;5.006;2023-04-12T04:15:18;5.43;;;1.85;;
79702;SDS011;69172;52.352;5.006;2023-04-12T04:17:43;4.35;;;1.27;;
79702;SDS011;69172;52.352;5.006;2023-04-12T04:20:10;4.22;;;1.20;;
79702;SDS011;69172;52.352;5.006;2023-04-12T04:22:37;5.05;;;1.48;;
79702;SDS011;69172;52.352;5.006;2023-04-12T04:25:03;8.88;;;1.95;;
79702;SDS011;69172;52.352;5.006;2023-04-12T04:27:30;5.10;;;1.92;;
79702;SDS011;69172;52.352;5.006;2023-04-12T04:30:01;4.47;;;1.75;;
79702;SDS011;69172;52.352;5.006;2023-04-12T04:32:27;3.67;;;1.60;;
79702;SDS011;69172;52.352;5.006;2023-04-12T04:34:56;6.88;;;1.60;;
79702;SDS011;69172;52.352;5.006;2023-04-12T04:37:25;5.65;;;1.85;;
79702;SDS011;69172;52.352;5.006;2023-04-12T04:39:51;5.05;;;1.90;;
79702;SDS011;69172;52.352;5.006;2023-04-12T04:42:17;5.97;;;1.67;;
79702;SDS011;69172;52.352;5.006;2023-04-12T04:44:42;7.10;;;1.67;;
79702;SDS011;69172;52.352;5.006;2023-04-12T04:47:08;6.03;;;1.83;;
79702;SDS011;69172;52.352;5.006;2023-04-12T04:49:35;5.32;;;2.33;;
79702;SDS011;69172;52.352;5.006;2023-04-12T04:52:01;6.45;;;2.00;;
79702;SDS011;69172;52.352;5.006;2023-04-12T04:54:26;5.07;;;1.70;;
79702;SDS011;69172;52.352;5.006;2023-04-12T04:56:52;6.18;;;2.08;;
79702;SDS011;69172;52.352;5.006;2023-04-12T04:59:17;4.30;;;2.00;;
79702;SDS011;69172;52.352;5.006;2023-04-12T05:01:44;8.60;;;2.20;;
79702;SDS011;69172;52.352;5.006;2023-04-12T05:04:10;6.90;;;2.10;;
79702;SDS011;69172;52.352;5.006;2023-04-12T05:06:35;5.85;;;2.08;;
79702;SDS011;69172;52.352;5.006;2023-04-12T05:09:00;5.38;;;2.33;;
79702;SDS011;69172;52.352;5.006;2023-04-12T05:11:26;5.18;;;2.08;;
79702;SDS011;69172;52.352;5.006;2023-04-12T05:13:51;5.30;;;2.28;;
79702;SDS011;69172;52.352;5.006;2023-04-12T05:16:17;6.22;;;2.25;;
79702;SDS011;69172;52.352;5.006;2023-04-12T05:18:43;9.73;;;2.50;;
79702;SDS011;69172;52.352;5.006;2023-04-12T05:21:08;6.78;;;2.53;;
79702;SDS011;69172;52.352;5.006;2023-04-12T05:23:35;6.18;;;2.85;;
79702;SDS011;69172;52.352;5.006;2023-04-12T05:26:01;5.85;;;2.80;;
79702;SDS011;69172;52.352;5.006;2023-04-12T05:28:26;7.03;;;3.30;;
79702;SDS011;69172;52.352;5.006;2023-04-12T05:30:52;10.90;;;2.72;;
79702;SDS011;69172;52.352;5.006;2023-04-12T05:33:17;7.97;;;3.23;;
79702;SDS011;69172;52.352;5.006;2023-04-12T05:35:42;6.90;;;3.33;;
79702;SDS011;69172;52.352;5.006;2023-04-12T05:38:08;6.85;;;2.88;;
79702;SDS011;69172;52.352;5.006;2023-04-12T05:40:33;7.22;;;3.22;;
79702;SDS011;69172;52.352;5.006;2023-04-12T05:43:00;5.80;;;2.63;;
79702;SDS011;69172;52.352;5.006;2023-04-12T05:45:26;7.40;;;2.60;;
79702;SDS011;69172;52.352;5.006;2023-04-12T05:47:52;8.52;;;3.00;;
79702;SDS011;69172;52.352;5.006;2023-04-12T05:50:19;8.50;;;3.33;;
79702;SDS011;69172;52.352;5.006;2023-04-12T05:52:44;8.13;;;3.65;;
79702;SDS011;69172;52.352;5.006;2023-04-12T05:55:12;9.02;;;3.63;;
79702;SDS011;69172;52.352;5.006;2023-04-12T05:57:38;7.18;;;3.42;;
79702;SDS011;69172;52.352;5.006;2023-04-12T06:00:04;9.27;;;4.32;;
79702;SDS011;69172;52.352;5.006;2023-04-12T06:02:45;11.50;;;3.88;;
79702;SDS011;69172;52.352;5.006;2023-04-12T06:05:12;8.80;;;3.92;;
79702;SDS011;69172;52.352;5.006;2023-04-12T06:07:38;10.85;;;4.15;;
79702;SDS011;69172;52.352;5.006;2023-04-12T06:10:06;9.02;;;4.03;;
79702;SDS011;69172;52.352;5.006;2023-04-12T06:12:32;9.60;;;4.40;;
79702;SDS011;69172;52.352;5.006;2023-04-12T06:14:57;9.23;;;4.25;;
79702;SDS011;69172;52.352;5.006;2023-04-12T06:17:22;9.20;;;4.28;;
79702;SDS011;69172;52.352;5.006;2023-04-12T06:19:48;7.43;;;3.63;;
79702;SDS011;69172;52.352;5.006;2023-04-12T06:22:14;8.98;;;4.32;;
79702;SDS011;69172;52.352;5.006;2023-04-12T06:24:39;10.57;;;4.65;;
79702;SDS011;69172;52.352;5.006;2023-04-12T06:27:05;11.25;;;5.03;;
79702;SDS011;69172;52.352;5.006;2023-04-12T06:29:30;12.45;;;5.40;;
79702;SDS011;69172;52.352;5.006;2023-04-12T06:31:55;11.23;;;5.45;;
79702;SDS011;69172;52.352;5.006;2023-04-12T06:34:21;12.00;;;5.10;;
79702;SDS011;69172;52.352;5.006;2023-04-12T06:36:46;11.57;;;5.28;;
79702;SDS011;69172;52.352;5.006;2023-04-12T06:39:12;11.85;;;6.03;;
79702;SDS011;69172;52.352;5.006;2023-04-12T06:41:40;15.30;;;6.43;;
79702;SDS011;69172;52.352;5.006;2023-04-12T06:44:07;11.15;;;4.85;;
79702;SDS011;69172;52.352;5.006;2023-04-12T06:46:33;14.77;;;5.13;;
79702;SDS011;69172;52.352;5.006;2023-04-12T06:48:58;13.20;;;5.55;;
79702;SDS011;69172;52.352;5.006;2023-04-12T06:51:24;12.48;;;4.93;;
79702;SDS011;69172;52.352;5.006;2023-04-12T06:53:49;14.75;;;5.63;;
79702;SDS011;69172;52.352;5.006;2023-04-12T06:56:15;13.77;;;5.25;;
79702;SDS011;69172;52.352;5.006;2023-04-12T06:58:40;10.50;;;5.25;;
79702;SDS011;69172;52.352;5.006;2023-04-12T07:01:06;17.83;;;5.50;;
79702;SDS011;69172;52.352;5.006;2023-04-12T07:03:34;16.23;;;4.97;;
79702;SDS011;69172;52.352;5.006;2023-04-12T07:06:01;15.02;;;4.30;;
79702;SDS011;69172;52.352;5.006;2023-04-12T07:08:28;16.63;;;4.40;;
79702;SDS011;69172;52.352;5.006;2023-04-12T07:10:55;15.70;;;4.53;;
79702;SDS011;69172;52.352;5.006;2023-04-12T07:13:21;14.07;;;3.42;;
79702;SDS011;69172;52.352;5.006;2023-04-12T07:15:49;21.83;;;4.10;;
79702;SDS011;69172;52.352;5.006;2023-04-12T07:18:15;21.35;;;4.45;;
79702;SDS011;69172;52.352;5.006;2023-04-12T07:20:40;17.63;;;3.00;;
79702;SDS011;69172;52.352;5.006;2023-04-12T07:23:06;16.67;;;2.65;;
79702;SDS011;69172;52.352;5.006;2023-04-12T07:25:31;17.80;;;2.42;;
79702;SDS011;69172;52.352;5.006;2023-04-12T07:27:56;17.90;;;3.92;;
79702;SDS011;69172;52.352;5.006;2023-04-12T07:30:22;18.65;;;2.97;;
79702;SDS011;69172;52.352;5.006;2023-04-12T07:32:47;17.23;;;2.60;;
79702;SDS011;69172;52.352;5.006;2023-04-12T07:35:13;22.38;;;3.08;;
79702;SDS011;69172;52.352;5.006;2023-04-12T07:37:39;16.55;;;2.20;;
79702;SDS011;69172;52.352;5.006;2023-04-12T07:40:04;19.50;;;4.15;;
79702;SDS011;69172;52.352;5.006;2023-04-12T07:42:30;16.30;;;2.83;;
79702;SDS011;69172;52.352;5.006;2023-04-12T07:44:56;19.15;;;2.63;;
79702;SDS011;69172;52.352;5.006;2023-04-12T07:47:22;23.42;;;3.00;;
79702;SDS011;69172;52.352;5.006;2023-04-12T07:49:47;16.30;;;1.98;;
79702;SDS011;69172;52.352;5.006;2023-04-12T07:52:12;15.20;;;2.63;;
79702;SDS011;69172;52.352;5.006;2023-04-12T07:54:38;21.05;;;3.00;;
79702;SDS011;69172;52.352;5.006;2023-04-12T07:57:04;17.95;;;2.65;;
79702;SDS011;69172;52.352;5.006;2023-04-12T07:59:29;15.65;;;2.63;;
79702;SDS011;69172;52.352;5.006;2023-04-12T08:01:55;14.82;;;2.63;;
79702;SDS011;69172;52.352;5.006;2023-04-12T08:04:21;14.90;;;2.42;;
79702;SDS011;69172;52.352;5.006;2023-04-12T08:06:46;16.70;;;2.75;;
79702;SDS011;69172;52.352;5.006;2023-04-12T08:09:12;17.90;;;2.33;;
79702;SDS011;69172;52.352;5.006;2023-04-12T08:11:37;13.23;;;2.33;;
79702;SDS011;69172;52.352;5.006;2023-04-12T08:14:02;16.15;;;2.85;;
79702;SDS011;69172;52.352;5.006;2023-04-12T08:16:28;15.18;;;2.53;;
79702;SDS011;69172;52.352;5.006;2023-04-12T08:18:53;23.65;;;3.67;;
79702;SDS011;69172;52.352;5.006;2023-04-12T08:21:18;16.67;;;2.78;;
79702;SDS011;69172;52.352;5.006;2023-04-12T08:23:44;18.13;;;2.75;;
79702;SDS011;69172;52.352;5.006;2023-04-12T08:26:10;17.30;;;3.13;;
79702;SDS011;69172;52.352;5.006;2023-04-12T08:28:36;14.05;;;2.50;;
79702;SDS011;69172;52.352;5.006;2023-04-12T08:31:03;10.05;;;2.28;;
79702;SDS011;69172;52.352;5.006;2023-04-12T08:33:29;16.50;;;3.03;;
79702;SDS011;69172;52.352;5.006;2023-04-12T08:35:54;14.40;;;3.00;;
79702;SDS011;69172;52.352;5.006;2023-04-12T08:38:20;13.07;;;2.72;;
79702;SDS011;69172;52.352;5.006;2023-04-12T08:40:46;16.75;;;3.05;;
79702;SDS011;69172;52.352;5.006;2023-04-12T08:43:11;13.80;;;3.97;;
79702;SDS011;69172;52.352;5.006;2023-04-12T08:45:37;16.25;;;2.20;;
79702;SDS011;69172;52.352;5.006;2023-04-12T08:48:03;13.85;;;2.45;;
79702;SDS011;69172;52.352;5.006;2023-04-12T08:50:30;15.35;;;2.10;;
79702;SDS011;69172;52.352;5.006;2023-04-12T08:52:56;13.70;;;2.33;;
79702;SDS011;69172;52.352;5.006;2023-04-12T08:55:23;18.25;;;2.45;;
79702;SDS011;69172;52.352;5.006;2023-04-12T08:57:48;14.15;;;2.63;;
79702;SDS011;69172;52.352;5.006;2023-04-12T09:00:17;16.77;;;2.40;;
79702;SDS011;69172;52.352;5.006;2023-04-12T09:02:45;17.10;;;2.42;;
79702;SDS011;69172;52.352;5.006;2023-04-12T09:05:12;10.63;;;2.83;;
79702;SDS011;69172;52.352;5.006;2023-04-12T09:07:39;12.57;;;1.73;;
79702;SDS011;69172;52.352;5.006;2023-04-12T09:10:05;14.32;;;2.03;;
79702;SDS011;69172;52.352;5.006;2023-04-12T09:12:30;17.08;;;2.53;;
79702;SDS011;69172;52.352;5.006;2023-04-12T09:15:06;10.18;;;1.63;;
79702;SDS011;69172;52.352;5.006;2023-04-12T09:17:33;13.70;;;2.13;;
79702;SDS011;69172;52.352;5.006;2023-04-12T09:20:01;13.15;;;2.20;;
79702;SDS011;69172;52.352;5.006;2023-04-12T09:22:31;10.63;;;1.70;;
79702;SDS011;69172;52.352;5.006;2023-04-12T09:25:01;12.15;;;2.28;;
79702;SDS011;69172;52.352;5.006;2023-04-12T09:27:26;11.82;;;2.17;;
79702;SDS011;69172;52.352;5.006;2023-04-12T09:30:07;14.63;;;1.88;;
79702;SDS011;69172;52.352;5.006;2023-04-12T09:32:33;16.58;;;2.38;;
79702;SDS011;69172;52.352;5.006;2023-04-12T09:34:59;13.57;;;2.55;;
79702;SDS011;69172;52.352;5.006;2023-04-12T09:37:26;11.57;;;1.75;;
79702;SDS011;69172;52.352;5.006;2023-04-12T09:40:13;13.75;;;1.77;;
79702;SDS011;69172;52.352;5.006;2023-04-12T09:42:56;8.20;;;2.10;;
79702;SDS011;69172;52.352;5.006;2023-04-12T09:45:23;14.25;;;1.88;;
79702;SDS011;69172;52.352;5.006;2023-04-12T09:47:50;11.90;;;2.17;;
79702;SDS011;69172;52.352;5.006;2023-04-12T09:50:23;14.85;;;2.28;;
79702;SDS011;69172;52.352;5.006;2023-04-12T09:52:52;11.55;;;1.75;;
79702;SDS011;69172;52.352;5.006;2023-04-12T09:55:23;13.68;;;2.10;;
79702;SDS011;69172;52.352;5.006;2023-04-12T09:57:50;7.68;;;1.58;;
79702;SDS011;69172;52.352;5.006;2023-04-12T10:00:17;10.63;;;1.95;;
79702;SDS011;69172;52.352;5.006;2023-04-12T10:02:44;15.20;;;2.15;;
79702;SDS011;69172;52.352;5.006;2023-04-12T10:05:12;10.10;;;1.80;;
79702;SDS011;69172;52.352;5.006;2023-04-12T10:07:39;15.45;;;2.95;;
79702;SDS011;69172;52.352;5.006;2023-04-12T10:10:10;11.52;;;2.17;;
79702;SDS011;69172;52.352;5.006;2023-04-12T10:12:37;13.13;;;2.15;;
79702;SDS011;69172;52.352;5.006;2023-04-12T10:15:04;12.68;;;2.25;;
79702;SDS011;69172;52.352;5.006;2023-04-12T10:17:46;14.23;;;1.95;;
79702;SDS011;69172;52.352;5.006;2023-04-12T10:20:21;12.93;;;1.73;;
79702;SDS011;69172;52.352;5.006;2023-04-12T10:25:14;14.70;;;2.15;;
79702;SDS011;69172;52.352;5.006;2023-04-12T10:27:42;13.32;;;3.00;;
79702;SDS011;69172;52.352;5.006;2023-04-12T10:30:18;16.10;;;2.10;;
79702;SDS011;69172;52.352;5.006;2023-04-12T10:32:48;12.75;;;2.75;;
79702;SDS011;69172;52.352;5.006;2023-04-12T10:36:07;8.65;;;1.70;;
79702;SDS011;69172;52.352;5.006;2023-04-12T10:38:46;11.82;;;1.63;;
79702;SDS011;69172;52.352;5.006;2023-04-12T10:41:19;13.07;;;2.10;;
79702;SDS011;69172;52.352;5.006;2023-04-12T10:43:48;11.40;;;1.90;;
79702;SDS011;69172;52.352;5.006;2023-04-12T10:49:11;15.18;;;2.08;;
79702;SDS011;69172;52.352;5.006;2023-04-12T10:51:37;7.28;;;1.38;;
79702;SDS011;69172;52.352;5.006;2023-04-12T10:59:04;10.48;;;2.00;;
79702;SDS011;69172;52.352;5.006;2023-04-12T11:01:34;12.38;;;2.63;;
79702;SDS011;69172;52.352;5.006;2023-04-12T11:04:06;10.85;;;1.75;;
79702;SDS011;69172;52.352;5.006;2023-04-12T11:12:09;16.38;;;1.80;;
79702;SDS011;69172;52.352;5.006;2023-04-12T11:14:39;20.02;;;7.03;;
79702;SDS011;69172;52.352;5.006;2023-04-12T11:19:35;11.30;;;2.00;;
79702;SDS011;69172;52.352;5.006;2023-04-12T11:22:06;15.57;;;1.95;;
79702;SDS011;69172;52.352;5.006;2023-04-12T11:24:37;15.52;;;2.42;;
79702;SDS011;69172;52.352;5.006;2023-04-12T11:27:04;14.63;;;2.05;;
79702;SDS011;69172;52.352;5.006;2023-04-12T11:29:30;12.25;;;2.13;;
79702;SDS011;69172;52.352;5.006;2023-04-12T11:31:58;18.05;;;2.75;;
79702;SDS011;69172;52.352;5.006;2023-04-12T11:34:31;12.30;;;1.98;;
79702;SDS011;69172;52.352;5.006;2023-04-12T11:36:57;11.30;;;1.90;;
79702;SDS011;69172;52.352;5.006;2023-04-12T11:39:23;14.70;;;1.80;;
79702;SDS011;69172;52.352;5.006;2023-04-12T11:41:51;12.73;;;2.55;;
79702;SDS011;69172;52.352;5.006;2023-04-12T11:44:17;16.83;;;3.17;;
79702;SDS011;69172;52.352;5.006;2023-04-12T11:46:43;15.60;;;2.80;;
79702;SDS011;69172;52.352;5.006;2023-04-12T11:49:09;17.88;;;3.17;;
79702;SDS011;69172;52.352;5.006;2023-04-12T11:51:35;13.10;;;1.98;;
79702;SDS011;69172;52.352;5.006;2023-04-12T11:54:00;13.13;;;2.05;;
79702;SDS011;69172;52.352;5.006;2023-04-12T11:56:27;15.75;;;2.78;;
79702;SDS011;69172;52.352;5.006;2023-04-12T11:58:52;13.80;;;2.50;;
79702;SDS011;69172;52.352;5.006;2023-04-12T12:01:18;14.75;;;2.63;;
79702;SDS011;69172;52.352;5.006;2023-04-12T12:03:45;16.77;;;3.30;;
79702;SDS011;69172;52.352;5.006;2023-04-12T12:06:11;11.00;;;2.10;;
79702;SDS011;69172;52.352;5.006;2023-04-12T12:08:38;9.95;;;1.60;;
79702;SDS011;69172;52.352;5.006;2023-04-12T12:11:03;8.63;;;1.75;;
79702;SDS011;69172;52.352;5.006;2023-04-12T12:13:48;11.68;;;1.92;;
79702;SDS011;69172;52.352;5.006;2023-04-12T12:16:16;19.15;;;2.22;;
79702;SDS011;69172;52.352;5.006;2023-04-12T12:18:43;12.63;;;2.00;;
79702;SDS011;69172;52.352;5.006;2023-04-12T12:21:13;10.57;;;1.83;;
79702;SDS011;69172;52.352;5.006;2023-04-12T12:23:42;12.88;;;2.08;;
79702;SDS011;69172;52.352;5.006;2023-04-12T12:26:08;10.55;;;2.00;;
79702;SDS011;69172;52.352;5.006;2023-04-12T12:28:37;13.20;;;2.13;;
79702;SDS011;69172;52.352;5.006;2023-04-12T12:31:08;16.48;;;2.67;;
79702;SDS011;69172;52.352;5.006;2023-04-12T12:33:37;13.32;;;1.77;;
79702;SDS011;69172;52.352;5.006;2023-04-12T12:36:04;6.97;;;1.40;;
79702;SDS011;69172;52.352;5.006;2023-04-12T12:38:34;12.07;;;1.67;;
79702;SDS011;69172;52.352;5.006;2023-04-12T12:41:15;7.07;;;1.48;;
79702;SDS011;69172;52.352;5.006;2023-04-12T12:43:44;9.45;;;1.73;;
79702;SDS011;69172;52.352;5.006;2023-04-12T12:46:13;10.25;;;2.20;;
79702;SDS011;69172;52.352;5.006;2023-04-12T12:48:39;13.02;;;1.75;;
79702;SDS011;69172;52.352;5.006;2023-04-12T12:51:06;12.43;;;1.75;;
79702;SDS011;69172;52.352;5.006;2023-04-12T12:53:32;8.05;;;1.20;;
79702;SDS011;69172;52.352;5.006;2023-04-12T12:55:57;7.85;;;1.50;;
79702;SDS011;69172;52.352;5.006;2023-04-12T12:58:23;7.25;;;1.30;;
79702;SDS011;69172;52.352;5.006;2023-04-12T13:00:48;9.75;;;1.23;;
79702;SDS011;69172;52.352;5.006;2023-04-12T13:03:13;10.30;;;1.20;;
79702;SDS011;69172;52.352;5.006;2023-04-12T13:05:39;7.07;;;1.00;;
79702;SDS011;69172;52.352;5.006;2023-04-12T13:08:04;6.60;;;0.82;;
79702;SDS011;69172;52.352;5.006;2023-04-12T13:10:30;6.20;;;0.88;;
79702;SDS011;69172;52.352;5.006;2023-04-12T13:12:55;6.20;;;0.90;;
79702;SDS011;69172;52.352;5.006;2023-04-12T13:15:21;4.50;;;0.70;;
79702;SDS011;69172;52.352;5.006;2023-04-12T13:17:46;3.92;;;0.80;;
79702;SDS011;69172;52.352;5.006;2023-04-12T13:20:12;3.25;;;0.50;;
79702;SDS011;69172;52.352;5.006;2023-04-12T13:22:37;4.35;;;1.17;;
79702;SDS011;69172;52.352;5.006;2023-04-12T13:25:03;4.75;;;0.80;;
79702;SDS011;69172;52.352;5.006;2023-04-12T13:27:28;4.10;;;0.68;;
79702;SDS011;69172;52.352;5.006;2023-04-12T13:29:54;6.53;;;0.90;;
79702;SDS011;69172;52.352;5.006;2023-04-12T13:32:19;6.53;;;0.95;;
79702;SDS011;69172;52.352;5.006;2023-04-12T13:34:44;5.72;;;0.70;;
79702;SDS011;69172;52.352;5.006;2023-04-12T13:37:10;4.18;;;0.75;;
79702;SDS011;69172;52.352;5.006;2023-04-12T13:39:35;3.97;;;1.42;;
79702;SDS011;69172;52.352;5.006;2023-04-12T13:42:01;3.47;;;0.98;;
79702;SDS011;69172;52.352;5.006;2023-04-12T13:44:27;9.68;;;1.10;;
79702;SDS011;69172;52.352;5.006;2023-04-12T13:46:53;4.43;;;1.52;;
79702;SDS011;69172;52.352;5.006;2023-04-12T13:49:18;2.78;;;0.70;;
79702;SDS011;69172;52.352;5.006;2023-04-12T13:51:44;4.85;;;0.70;;
79702;SDS011;69172;52.352;5.006;2023-04-12T13:54:09;5.97;;;0.90;;
79702;SDS011;69172;52.352;5.006;2023-04-12T13:56:35;4.68;;;0.73;;
79702;SDS011;69172;52.352;5.006;2023-04-12T13:59:00;8.77;;;1.40;;
79702;SDS011;69172;52.352;5.006;2023-04-12T14:01:27;4.20;;;0.70;;
79702;SDS011;69172;52.352;5.006;2023-04-12T14:03:52;5.85;;;0.85;;
79702;SDS011;69172;52.352;5.006;2023-04-12T14:06:18;5.93;;;0.80;;
79702;SDS011;69172;52.352;5.006;2023-04-12T14:08:44;4.57;;;0.95;;
79702;SDS011;69172;52.352;5.006;2023-04-12T14:11:09;6.22;;;1.23;;
79702;SDS011;69172;52.352;5.006;2023-04-12T14:13:35;6.65;;;0.90;;
79702;SDS011;69172;52.352;5.006;2023-04-12T14:16:00;6.82;;;0.98;;
79702;SDS011;69172;52.352;5.006;2023-04-12T14:18:25;4.68;;;0.95;;
79702;SDS011;69172;52.352;5.006;2023-04-12T14:20:51;4.22;;;0.93;;
79702;SDS011;69172;52.352;5.006;2023-04-12T14:23:19;3.38;;;0.95;;
79702;SDS011;69172;52.352;5.006;2023-04-12T14:25:47;3.10;;;0.80;;
79702;SDS011;69172;52.352;5.006;2023-04-12T14:28:13;3.33;;;0.95;;
79702;SDS011;69172;52.352;5.006;2023-04-12T14:30:41;4.70;;;1.00;;
79702;SDS011;69172;52.352;5.006;2023-04-12T14:33:07;2.88;;;0.80;;
79702;SDS011;69172;52.352;5.006;2023-04-12T14:35:32;5.50;;;0.95;;
79702;SDS011;69172;52.352;5.006;2023-04-12T14:37:58;3.33;;;0.82;;
79702;SDS011;69172;52.352;5.006;2023-04-12T14:40:23;3.97;;;0.82;;
79702;SDS011;69172;52.352;5.006;2023-04-12T14:42:48;4.45;;;0.90;;
79702;SDS011;69172;52.352;5.006;2023-04-12T14:45:14;8.93;;;1.50;;
79702;SDS011;69172;52.352;5.006;2023-04-12T14:47:41;5.28;;;0.95;;
79702;SDS011;69172;52.352;5.006;2023-04-12T14:50:06;3.90;;;0.70;;
79702;SDS011;69172;52.352;5.006;2023-04-12T14:52:32;4.75;;;1.02;;
79702;SDS011;69172;52.352;5.006;2023-04-12T14:54:58;3.88;;;0.60;;
79702;SDS011;69172;52.352;5.006;2023-04-12T14:57:23;8.10;;;1.13;;
79702;SDS011;69172;52.352;5.006;2023-04-12T14:59:49;5.20;;;1.05;;
79702;SDS011;69172;52.352;5.006;2023-04-12T15:02:14;5.05;;;0.88;;
79702;SDS011;69172;52.352;5.006;2023-04-12T15:04:40;8.13;;;1.80;;
79702;SDS011;69172;52.352;5.006;2023-04-12T15:07:05;5.30;;;1.10;;
79702;SDS011;69172;52.352;5.006;2023-04-12T15:09:31;2.47;;;0.63;;
79702;SDS011;69172;52.352;5.006;2023-04-12T15:11:56;6.15;;;0.90;;
79702;SDS011;69172;52.352;5.006;2023-04-12T15:14:27;8.90;;;2.35;;
79702;SDS011;69172;52.352;5.006;2023-04-12T15:16:53;5.10;;;0.90;;
79702;SDS011;69172;52.352;5.006;2023-04-12T15:19:20;3.10;;;0.63;;
79702;SDS011;69172;52.352;5.006;2023-04-12T15:21:52;2.95;;;0.70;;
79702;SDS011;69172;52.352;5.006;2023-04-12T15:24:21;3.67;;;0.65;;
79702;SDS011;69172;52.352;5.006;2023-04-12T15:26:47;2.65;;;0.73;;